Arco, ID

12:58 AM MDT on October 26, 2014 (GMT -0600)
Friedman Memorial | Change Station
CLOSE
Current Station
Airport
Location: Hailey,
Elevation: 5315 ft
Nearby Weather Stations

Elev 5315 ft 43.50 °N, 114.30 °W | Updated 23 minutes ago

Overcast
Overcast
52 °F
Feels Like 52 °F
N
8
Wind Variable Wind from SW

Today
High -- | Low -- °F
--% Chance of Precip.
Yesterday
High -- | Low -- °F
Precip. -- in
8:01 AM 6:32 PM
Waxing Crescent, 6% visible
Pressure 29.92 in
Visibility 10.0 miles
Clouds Overcast 10000 ft
Dew Point 30 °F
Humidity 44%
Rainfall 0.00 in
Snow Depth Not available.
UV 0 out of 12
Pollen 3.20 out of 12
Air Quality Not available.
Flu Activity No Activity
METAR KSUN 260635Z AUTO 23007KT 10SM OVC100 11/M01 A2992 RMK AO2

More Conditions Fewer Conditions

Pressure 29.92 in
Visibility 10.0 miles
Clouds Overcast 10000 ft
Dew Point 30 °F
Humidity 44%
Rainfall 0.00 in
Snow Depth Not available.
UV 0 out of 12
Pollen 3.20 out of 12
Air Quality Not available.
Flu Activity No Activity
METAR KSUN 260635Z AUTO 23007KT 10SM OVC100 11/M01 A2992 RMK AO2

More Conditions Fewer Conditions

10-Day Weather Forecast

Almanac

Astronomy

Oct. 26, 2014 Rise Set
Actual Time 8:01 AM MDT 6:32 PM MDT
Civil Twilight 7:31 AM MDT 7:01 PM MDT
Nautical Twilight 6:58 AM MDT 7:35 PM MDT
Astronomical Twilight 6:24 AM MDT 8:08 PM MDT
Moon 10:46 AM MDT 8:43 PM MDT
Length of Visible Light 11h 29m
Length of Day
10h 31m
Tomorrow will be 2m 45s shorter.
Waxing Crescent, 6% of the Moon is Illuminated
Today
Waxing Crescent
Oct 30
First Quarter
Nov 6
Full
Nov 14
Last Quarter
Nov 22
New

Today's Extremes

State Highs State Lows

Community

WunderPhotos

Upload Photos

1,765,117 photos uploaded!

Nearby

Snow Depth

Station Depth Elevation
Hilts Creek 0 in 8000 ft
Bear Canyon 0 in 7900 ft
Swede Peak 1 in 7640 ft
Hyndman 0 in 7440 ft
Lost-Wood Divide 1 in 7900 ft

Earthquake Activity

City Distance Mag. Time & Date
No recent earthquake activity has been reported nearby.
Minimum magnitude displayed is 2.5.

Coastal Water Temperatures

Place Temperature
No Stations Reporting

Nearby Weather Stations